Time,TemperatureF,DewpointF,PressureIn,WindDirection,WindDirectionDegrees,WindSpeedMPH,WindSpeedGustMPH,Humidity,HourlyPrecipIn,Conditions,Clouds,dailyrainin,SoftwareType,DateUTC
2013-03-10 00:02:00,62.6,58.7,29.80,NE,45,1.1,0.0,87,0.00,CLR,,0.00,WeatherDisplay:10.37,2013-03-10 06:02:00,
2013-03-10 00:07:00,62.6,58.7,29.80,NE,45,1.1,0.0,87,0.00,CLR,,0.00,WeatherDisplay:10.37,2013-03-10 06:07:00,
2013-03-10 00:12:00,62.8,58.9,29.80,NE,45,0.0,0.0,87,0.00,CLR,,0.00,WeatherDisplay:10.37,2013-03-10 06:12:00,
2013-03-10 00:17:00,62.8,58.9,29.80,NE,45,1.1,0.0,87,0.00,CLR,,0.00,WeatherDisplay:10.37,2013-03-10 06:17:00,
2013-03-10 00:22:00,62.8,58.9,29.81,NE,45,1.1,0.0,87,0.00,CLR,,0.00,WeatherDisplay:10.37,2013-03-10 06:22:00,
2013-03-10 00:27:00,62.8,58.9,29.81,NE,45,0.0,0.0,87,0.00,CLR,,0.00,WeatherDisplay:10.37,2013-03-10 06:27:00,
2013-03-10 00:32:00,62.6,58.7,29.80,NE,45,1.1,1.1,87,0.00,CLR,,0.00,WeatherDisplay:10.37,2013-03-10 06:32:00,
2013-03-10 00:37:00,62.4,58.8,29.80,East,90,1.1,1.1,88,0.00,CLR,,0.00,WeatherDisplay:10.37,2013-03-10 06:37:00,
2013-03-10 00:42:00,62.4,58.8,29.80,NE,45,1.1,0.0,88,0.00,CLR,,0.00,WeatherDisplay:10.37,2013-03-10 06:42:00,
2013-03-10 00:47:00,62.1,58.5,29.81,NE,45,1.1,0.0,88,0.00,CLR,,0.00,WeatherDisplay:10.37,2013-03-10 06:47:00,
2013-03-10 00:52:00,61.9,58.3,29.81,NE,45,1.1,0.0,88,0.00,CLR,,0.00,WeatherDisplay:10.37,2013-03-10 06:52:00,
2013-03-10 00:57:00,61.7,58.4,29.81,SE,135,0.0,0.0,89,0.00,CLR,,0.00,WeatherDisplay:10.37,2013-03-10 06:57:00,
2013-03-10 01:02:00,61.5,58.2,29.81,SE,135,0.0,0.0,89,0.00,CLR,,0.00,WeatherDisplay:10.37,2013-03-10 07:02:00,
2013-03-10 01:07:00,61.7,58.7,29.81,NE,45,0.0,0.0,90,0.00,CLR,,0.00,WeatherDisplay:10.37,2013-03-10 07:07:00,
2013-03-10 01:12:00,61.7,58.7,29.81,NE,45,0.0,0.0,90,0.00,CLR,,0.00,WeatherDisplay:10.37,2013-03-10 07:12:00,
2013-03-10 01:17:00,61.7,58.7,29.81,NE,45,0.0,0.0,90,0.00,CLR,,0.00,WeatherDisplay:10.37,2013-03-10 07:17:00,
2013-03-10 01:23:00,61.7,58.7,29.81,NE,45,1.1,1.1,90,0.00,CLR,,0.00,WeatherDisplay:10.37,2013-03-10 07:23:00,
2013-03-10 01:28:00,61.7,58.7,29.80,NE,45,1.1,0.0,90,0.00,CLR,,0.00,WeatherDisplay:10.37,2013-03-10 07:28:00,
2013-03-10 01:33:00,61.5,58.6,29.80,NE,45,0.0,0.0,90,0.00,CLR,,0.00,WeatherDisplay:10.37,2013-03-10 07:33:00,
2013-03-10 01:38:00,61.2,57.9,29.80,North,0,0.0,0.0,89,0.00,CLR,,0.00,WeatherDisplay:10.37,2013-03-10 07:38:00,
2013-03-10 01:43:00,61.0,58.0,29.80,North,0,0.0,0.0,90,0.00,CLR,,0.00,WeatherDisplay:10.37,2013-03-10 07:43:00,
2013-03-10 01:48:00,60.8,57.8,29.80,East,90,1.1,0.0,90,0.00,CLR,,0.00,WeatherDisplay:10.37,2013-03-10 07:48:00,
2013-03-10 01:53:00,60.6,58.0,29.78,NE,45,1.6,1.6,91,0.00,CLR,,0.00,WeatherDisplay:10.37,2013-03-10 07:53:00,
2013-03-10 01:58:00,60.6,58.0,29.78,NE,45,0.0,0.0,91,0.00,CLR,,0.00,WeatherDisplay:10.37,2013-03-10 07:58:00,
2013-03-10 03:03:00,60.6,58.0,29.78,NE,45,0.0,0.0,91,0.00,CLR,,0.00,WeatherDisplay:10.37,2013-03-10 08:03:00,
2013-03-10 03:08:00,60.6,58.0,29.78,East,90,0.0,0.7,91,0.00,CLR,,0.00,WeatherDisplay:10.37,2013-03-10 08:08:00,
2013-03-10 03:13:00,60.8,58.5,29.77,East,90,3.5,3.5,92,0.00,CLR,,0.00,WeatherDisplay:10.37,2013-03-10 08:13:00,
2013-03-10 03:18:00,60.8,58.5,29.76,East,90,2.3,0.0,92,0.00,CLR,,0.00,WeatherDisplay:10.37,2013-03-10 08:18:00,
2013-03-10 03:23:00,60.6,58.3,29.75,NE,45,1.1,0.0,92,0.00,CLR,,0.00,WeatherDisplay:10.37,2013-03-10 08:23:00,
2013-03-10 03:28:00,60.4,58.4,29.75,North,0,1.1,0.0,93,0.00,CLR,,0.00,WeatherDisplay:10.37,2013-03-10 08:28:00,
2013-03-10 03:33:00,60.4,58.4,29.75,SE,135,2.3,0.0,93,0.00,CLR,,0.00,WeatherDisplay:10.37,2013-03-10 08:33:00,
2013-03-10 03:38:00,60.4,58.4,29.74,NE,45,1.1,0.0,93,0.00,CLR,,0.00,WeatherDisplay:10.37,2013-03-10 08:38:00,
2013-03-10 03:43:00,60.6,58.9,29.74,North,0,1.1,0.0,94,0.00,CLR,,0.00,WeatherDisplay:10.37,2013-03-10 08:43:00,
2013-03-10 03:48:00,61.0,59.2,29.74,NE,45,1.1,1.1,94,0.00,CLR,,0.00,WeatherDisplay:10.37,2013-03-10 08:48:00,
2013-03-10 03:53:00,61.3,59.9,29.74,SE,135,1.1,1.1,95,0.00,CLR,,0.00,WeatherDisplay:10.37,2013-03-10 08:53:00,
2013-03-10 03:58:00,61.5,60.1,29.74,SE,135,3.5,0.0,95,0.00,CLR,,0.00,WeatherDisplay:10.37,2013-03-10 08:58:00,
2013-03-10 04:03:00,61.7,60.3,29.73,NE,45,1.1,1.1,95,0.00,CLR,,0.00,WeatherDisplay:10.37,2013-03-10 09:03:00,
2013-03-10 04:08:00,61.7,60.0,29.73,SE,135,1.1,0.0,94,0.00,CLR,,0.00,WeatherDisplay:10.37,2013-03-10 09:08:00,
2013-03-10 04:13:00,61.5,59.8,29.73,East,90,2.3,2.3,94,0.00,CLR,,0.00,WeatherDisplay:10.37,2013-03-10 09:13:00,
2013-03-10 04:18:00,61.5,59.8,29.73,SE,135,3.5,3.5,94,0.00,CLR,,0.00,WeatherDisplay:10.37,2013-03-10 09:18:00,
2013-03-10 04:23:00,61.5,59.8,29.73,SE,135,2.3,2.3,94,0.00,CLR,,0.00,WeatherDisplay:10.37,2013-03-10 09:23:00,
2013-03-10 04:28:00,61.5,60.1,29.73,South,180,1.1,0.0,95,0.00,CLR,,0.00,WeatherDisplay:10.37,2013-03-10 09:28:00,
2013-03-10 04:33:00,61.7,60.3,29.74,SE,135,1.6,0.0,95,0.00,CLR,,0.00,WeatherDisplay:10.37,2013-03-10 09:33:00,
2013-03-10 04:38:00,61.7,60.3,29.73,SE,135,2.3,2.3,95,0.00,CLR,,0.00,WeatherDisplay:10.37,2013-03-10 09:38:00,
2013-03-10 04:43:00,61.7,60.3,29.73,South,180,1.1,0.0,95,0.00,CLR,,0.00,WeatherDisplay:10.37,2013-03-10 09:43:00,
2013-03-10 04:48:00,61.9,60.4,29.73,SE,135,2.3,0.0,95,0.00,CLR,,0.00,WeatherDisplay:10.37,2013-03-10 09:48:00,
2013-03-10 04:53:00,61.9,60.4,29.73,SE,135,2.3,0.0,95,0.00,CLR,,0.00,WeatherDisplay:10.37,2013-03-10 09:53:00,
2013-03-10 04:58:00,62.1,60.9,29.74,SE,135,3.5,0.0,96,0.00,CLR,,0.00,WeatherDisplay:10.37,2013-03-10 09:58:00,
2013-03-10 05:03:00,62.1,60.9,29.74,SE,135,2.3,2.3,96,0.00,CLR,,0.00,WeatherDisplay:10.37,2013-03-10 10:03:00,
2013-03-10 05:08:00,62.2,61.1,29.74,SE,135,2.3,0.0,96,0.00,CLR,,0.00,WeatherDisplay:10.37,2013-03-10 10:08:00,
2013-03-10 05:13:00,62.2,61.1,29.74,SE,135,2.3,2.3,96,0.00,CLR,,0.00,WeatherDisplay:10.37,2013-03-10 10:13:00,
2013-03-10 05:18:00,62.4,61.0,29.73,SE,135,1.1,0.0,95,0.00,CLR,,0.00,WeatherDisplay:10.37,2013-03-10 10:18:00,
2013-03-10 05:23:00,62.4,61.0,29.73,SE,135,1.1,0.0,95,0.00,CLR,,0.00,WeatherDisplay:10.37,2013-03-10 10:23:00,
2013-03-10 05:28:00,62.4,61.0,29.74,SE,135,1.1,0.0,95,0.00,CLR,,0.00,WeatherDisplay:10.37,2013-03-10 10:28:00,
2013-03-10 05:33:00,62.6,61.4,29.74,SE,135,1.6,0.0,96,0.00,CLR,,0.00,WeatherDisplay:10.37,2013-03-10 10:33:00,
2013-03-10 05:38:00,62.8,61.3,29.73,SE,135,1.1,0.0,95,0.00,CLR,,0.00,WeatherDisplay:10.37,2013-03-10 10:38:00,
2013-03-10 05:43:00,62.6,61.1,29.73,SE,135,1.1,0.0,95,0.00,CLR,,0.00,WeatherDisplay:10.37,2013-03-10 10:43:00,
2013-03-10 05:48:00,63.0,61.5,29.73,SE,135,1.1,0.0,95,0.00,CLR,,0.00,WeatherDisplay:10.37,2013-03-10 10:48:00,
2013-03-10 05:53:00,63.0,61.5,29.73,South,180,2.3,0.0,95,0.00,CLR,,0.00,WeatherDisplay:10.37,2013-03-10 10:53:00,
2013-03-10 05:58:00,63.0,61.5,29.72,SE,135,1.1,0.0,95,0.00,CLR,,0.00,WeatherDisplay:10.37,2013-03-10 10:58:00,
2013-03-10 06:03:00,63.1,61.7,29.72,East,90,1.1,0.0,95,0.00,CLR,,0.00,WeatherDisplay:10.37,2013-03-10 11:03:00,
2013-03-10 06:08:00,63.1,61.7,29.71,SE,135,1.1,0.0,95,0.00,CLR,,0.00,WeatherDisplay:10.37,2013-03-10 11:08:00,
2013-03-10 06:13:00,63.0,61.2,29.72,West,270,1.1,1.1,94,0.00,CLR,,0.00,WeatherDisplay:10.37,2013-03-10 11:13:00,
2013-03-10 06:18:00,63.0,61.2,29.72,West,270,1.1,0.0,94,0.00,CLR,,0.00,WeatherDisplay:10.37,2013-03-10 11:18:00,
2013-03-10 06:23:00,63.0,61.2,29.73,SE,135,1.1,0.0,94,0.00,CLR,,0.00,WeatherDisplay:10.37,2013-03-10 11:23:00,
2013-03-10 06:28:00,63.0,61.2,29.73,SE,135,1.6,0.0,94,0.00,CLR,,0.00,WeatherDisplay:10.37,2013-03-10 11:28:00,
2013-03-10 06:34:00,63.0,61.2,29.73,SE,135,1.1,0.0,94,0.00,CLR,,0.00,WeatherDisplay:10.37,2013-03-10 11:34:00,
2013-03-10 06:39:00,63.0,61.5,29.73,SE,135,3.5,3.5,95,0.00,CLR,,0.00,WeatherDisplay:10.37,2013-03-10 11:39:00,
2013-03-10 06:44:00,63.1,61.7,29.73,SE,135,1.1,1.1,95,0.00,CLR,,0.00,WeatherDisplay:10.37,2013-03-10 11:44:00,
2013-03-10 06:49:00,63.0,61.5,29.73,SE,135,1.1,0.0,95,0.00,CLR,,0.00,WeatherDisplay:10.37,2013-03-10 11:49:00,
2013-03-10 06:54:00,63.0,61.5,29.73,NE,45,5.8,5.8,95,0.00,CLR,,0.00,WeatherDisplay:10.37,2013-03-10 11:54:00,
2013-03-10 06:59:00,63.1,61.7,29.73,SW,225,1.1,0.0,95,0.00,CLR,,0.00,WeatherDisplay:10.37,2013-03-10 11:59:00,
2013-03-10 07:04:00,63.1,61.7,29.73,SE,135,1.1,0.0,95,0.00,CLR,,0.00,WeatherDisplay:10.37,2013-03-10 12:04:00,
2013-03-10 07:09:00,63.0,61.5,29.74,SE,135,3.5,3.5,95,0.00,CLR,,0.00,WeatherDisplay:10.37,2013-03-10 12:09:00,
2013-03-10 07:14:00,63.1,61.7,29.75,SE,135,1.1,0.0,95,0.00,CLR,,0.00,WeatherDisplay:10.37,2013-03-10 12:14:00,
2013-03-10 07:19:00,63.3,61.9,29.75,South,180,1.1,0.0,95,0.00,CLR,,0.00,WeatherDisplay:10.37,2013-03-10 12:19:00,
2013-03-10 07:24:00,63.3,61.9,29.75,SE,135,1.1,0.0,95,0.00,CLR,,0.00,WeatherDisplay:10.37,2013-03-10 12:24:00,
2013-03-10 07:29:00,63.3,61.9,29.75,SE,135,1.1,1.1,95,0.00,CLR,,0.00,WeatherDisplay:10.37,2013-03-10 12:29:00,
2013-03-10 07:34:00,63.5,62.0,29.75,South,180,1.1,1.1,95,0.00,CLR,,0.00,WeatherDisplay:10.37,2013-03-10 12:34:00,
2013-03-10 07:39:00,63.3,61.6,29.76,South,180,1.1,0.0,94,0.00,CLR,,0.00,WeatherDisplay:10.37,2013-03-10 12:39:00,
2013-03-10 07:44:00,63.5,61.7,29.75,SE,135,1.1,0.0,94,0.00,CLR,,0.00,WeatherDisplay:10.37,2013-03-10 12:44:00,
2013-03-10 07:49:00,63.5,61.7,29.76,SSE,158,2.3,2.3,94,0.00,CLR,,0.00,WeatherDisplay:10.37,2013-03-10 12:49:00,
2013-03-10 07:54:00,63.5,61.7,29.76,SE,135,1.1,0.0,94,0.00,CLR,,0.00,WeatherDisplay:10.37,2013-03-10 12:54:00,
2013-03-10 07:59:00,63.5,61.7,29.77,SE,135,1.1,0.0,94,0.00,CLR,,0.00,WeatherDisplay:10.37,2013-03-10 12:59:00,
2013-03-10 08:04:00,63.5,61.7,29.76,East,90,1.1,0.0,94,0.00,CLR,,0.00,WeatherDisplay:10.37,2013-03-10 13:04:00,
2013-03-10 08:09:00,63.3,61.6,29.76,NE,45,3.5,3.5,94,0.00,CLR,,0.00,WeatherDisplay:10.37,2013-03-10 13:09:00,
2013-03-10 08:14:00,63.3,61.6,29.76,NNE,22,3.5,3.5,94,0.00,CLR,,0.00,WeatherDisplay:10.37,2013-03-10 13:14:00,
2013-03-10 08:19:00,63.3,61.9,29.76,South,180,1.6,0.0,95,0.00,CLR,,0.00,WeatherDisplay:10.37,2013-03-10 13:19:00,
2013-03-10 08:24:00,63.3,61.9,29.76,SE,135,1.1,0.0,95,0.00,CLR,,0.00,WeatherDisplay:10.37,2013-03-10 13:24:00,
2013-03-10 08:29:00,63.3,61.9,29.76,NE,45,1.1,0.0,95,0.00,CLR,,0.00,WeatherDisplay:10.37,2013-03-10 13:29:00,
2013-03-10 08:34:00,63.5,62.0,29.75,NE,45,1.1,1.1,95,0.00,CLR,,0.00,WeatherDisplay:10.37,2013-03-10 13:34:00,
2013-03-10 08:39:00,63.7,62.2,29.75,East,90,2.3,2.3,95,0.00,CLR,,0.00,WeatherDisplay:10.37,2013-03-10 13:39:00,
2013-03-10 08:44:00,63.7,62.2,29.75,South,180,1.1,0.0,95,0.00,CLR,,0.00,WeatherDisplay:10.37,2013-03-10 13:44:00,
2013-03-10 08:49:00,63.7,62.2,29.75,SE,135,2.3,2.3,95,0.00,CLR,,0.00,WeatherDisplay:10.37,2013-03-10 13:49:00,
2013-03-10 08:54:00,63.7,62.2,29.76,SE,135,1.1,1.1,95,0.00,CLR,,0.00,WeatherDisplay:10.37,2013-03-10 13:54:00,
2013-03-10 08:59:00,63.9,62.4,29.75,South,180,2.3,2.3,95,0.00,CLR,,0.00,WeatherDisplay:10.37,2013-03-10 13:59:00,
2013-03-10 09:04:00,63.9,62.4,29.75,SE,135,2.3,0.0,95,0.00,CLR,,0.00,WeatherDisplay:10.37,2013-03-10 14:04:00,
2013-03-10 09:09:00,64.2,62.8,29.75,SE,135,2.3,0.0,95,0.00,CLR,,0.00,WeatherDisplay:10.37,2013-03-10 14:09:00,
2013-03-10 09:14:00,64.4,62.9,29.75,SE,135,2.3,2.3,95,0.00,CLR,,0.00,WeatherDisplay:10.37,2013-03-10 14:14:00,
2013-03-10 09:19:00,64.4,62.9,29.75,South,180,3.5,3.5,95,0.00,CLR,,0.00,WeatherDisplay:10.37,2013-03-10 14:19:00,
2013-03-10 09:24:00,64.6,63.1,29.76,South,180,3.5,3.5,95,0.00,CLR,,0.00,WeatherDisplay:10.37,2013-03-10 14:24:00,
2013-03-10 09:30:00,64.8,63.3,29.76,SE,135,2.3,2.3,95,0.00,CLR,,0.00,WeatherDisplay:10.37,2013-03-10 14:30:00,
2013-03-10 09:35:00,65.3,63.8,29.76,SE,135,2.3,2.3,95,0.00,CLR,,0.00,WeatherDisplay:10.37,2013-03-10 14:35:00,
2013-03-10 09:40:00,65.7,64.2,29.75,SE,135,2.3,2.3,95,0.00,CLR,,0.00,WeatherDisplay:10.37,2013-03-10 14:40:00,
2013-03-10 09:45:00,66.2,64.4,29.76,SE,135,4.6,4.6,94,0.00,CLR,,0.00,WeatherDisplay:10.37,2013-03-10 14:45:00,
2013-03-10 09:50:00,67.1,64.7,29.75,South,180,3.5,3.5,92,0.00,CLR,,0.00,WeatherDisplay:10.37,2013-03-10 14:50:00,
2013-03-10 09:55:00,67.6,64.6,29.75,SE,135,5.8,5.8,90,0.00,CLR,,0.00,WeatherDisplay:10.37,2013-03-10 14:55:00,
2013-03-10 10:00:00,68.2,64.5,29.75,South,180,6.9,6.9,88,0.00,CLR,,0.00,WeatherDisplay:10.37,2013-03-10 15:00:00,
2013-03-10 10:05:00,68.2,64.5,29.73,South,180,5.8,5.8,88,0.00,CLR,,0.00,WeatherDisplay:10.37,2013-03-10 15:05:00,
2013-03-10 10:10:00,69.1,64.7,29.72,SE,135,5.8,5.8,86,0.00,CLR,,0.00,WeatherDisplay:10.37,2013-03-10 15:10:00,
2013-03-10 10:15:00,69.4,64.7,29.72,East,90,3.5,3.5,85,0.00,CLR,,0.00,WeatherDisplay:10.37,2013-03-10 15:15:00,
2013-03-10 10:20:00,69.4,64.4,29.73,SE,135,5.8,5.8,84,0.00,CLR,,0.00,WeatherDisplay:10.37,2013-03-10 15:20:00,
2013-03-10 10:25:00,69.3,64.2,29.73,ESE,120,3.0,9.0,84,0.00,CLR,,0.00,WeatherDisplay:10.37,2013-03-10 15:25:00,
2013-03-10 10:30:00,69.3,64.2,29.74,SE,135,5.8,5.8,84,0.00,CLR,,0.00,WeatherDisplay:10.37,2013-03-10 15:30:00,
2013-03-10 10:35:00,69.2,63.8,29.74,SE,132,3.0,9.0,83,0.00,CLR,,0.00,WeatherDisplay:10.37,2013-03-10 15:35:00,
2013-03-10 10:40:00,69.3,63.9,29.74,East,90,5.8,5.8,83,0.00,CLR,,0.00,WeatherDisplay:10.37,2013-03-10 15:40:00,
2013-03-10 10:45:00,69.4,64.0,29.73,South,180,5.8,5.8,83,0.00,CLR,,0.00,WeatherDisplay:10.37,2013-03-10 15:45:00,
2013-03-10 10:50:00,69.6,63.9,29.73,South,180,8.1,8.1,82,0.00,CLR,,0.00,WeatherDisplay:10.37,2013-03-10 15:50:00,
2013-03-10 10:55:00,69.8,63.7,29.73,South,180,3.5,3.5,81,0.00,CLR,,0.00,WeatherDisplay:10.37,2013-03-10 15:55:00,
2013-03-10 11:00:00,69.8,63.7,29.72,SE,135,5.8,5.8,81,0.00,CLR,,0.00,WeatherDisplay:10.37,2013-03-10 16:00:00,
2013-03-10 11:05:00,69.8,63.7,29.72,SE,135,4.6,4.6,81,0.00,CLR,,0.00,WeatherDisplay:10.37,2013-03-10 16:05:00,
2013-03-10 11:10:00,70.2,63.7,29.72,ESE,112,3.5,3.5,80,0.00,CLR,,0.00,WeatherDisplay:10.37,2013-03-10 16:10:00,
2013-03-10 11:15:00,70.3,63.5,29.72,North,0,6.9,6.9,79,0.00,CLR,,0.00,WeatherDisplay:10.37,2013-03-10 16:15:00,
2013-03-10 11:20:00,70.7,63.5,29.72,East,90,8.3,8.3,78,0.00,CLR,,0.00,WeatherDisplay:10.37,2013-03-10 16:20:00,
2013-03-10 11:25:00,70.7,63.5,29.72,SW,225,5.8,5.8,78,0.00,CLR,,0.00,WeatherDisplay:10.37,2013-03-10 16:25:00,
2013-03-10 11:30:00,70.9,63.3,29.72,SE,135,11.5,11.5,77,0.00,CLR,,0.00,WeatherDisplay:10.37,2013-03-10 16:30:00,
2013-03-10 11:35:00,71.1,63.5,29.73,NE,45,8.1,8.1,77,0.00,CLR,,0.00,WeatherDisplay:10.37,2013-03-10 16:35:00,
2013-03-10 11:40:00,71.1,63.1,29.72,SE,135,5.8,5.8,76,0.00,CLR,,0.00,WeatherDisplay:10.37,2013-03-10 16:40:00,
2013-03-10 11:45:00,71.2,63.3,29.72,East,90,5.4,5.4,76,0.00,CLR,,0.00,WeatherDisplay:10.37,2013-03-10 16:45:00,
2013-03-10 11:51:00,71.2,63.3,29.72,East,90,6.9,6.9,76,0.00,CLR,,0.00,WeatherDisplay:10.37,2013-03-10 16:51:00,
2013-03-10 11:56:00,71.4,63.5,29.73,NW,315,4.6,4.6,76,0.00,CLR,,0.00,WeatherDisplay:10.37,2013-03-10 16:56:00,
2013-03-10 12:01:00,71.4,63.5,29.73,SE,135,8.1,8.1,76,0.00,CLR,,0.00,WeatherDisplay:10.37,2013-03-10 17:01:00,
2013-03-10 12:06:00,71.4,63.5,29.73,SE,135,3.5,3.5,76,0.00,CLR,,0.00,WeatherDisplay:10.37,2013-03-10 17:06:00,
2013-03-10 12:11:00,71.6,63.6,29.73,SE,135,8.1,8.1,76,0.00,CLR,,0.00,WeatherDisplay:10.37,2013-03-10 17:11:00,
2013-03-10 12:16:00,71.6,63.6,29.73,South,180,4.6,4.6,76,0.00,CLR,,0.00,WeatherDisplay:10.37,2013-03-10 17:16:00,
2013-03-10 12:21:00,71.6,63.3,29.73,SW,225,11.5,11.5,75,0.00,CLR,,0.00,WeatherDisplay:10.37,2013-03-10 17:21:00,
2013-03-10 12:26:00,71.6,63.6,29.75,SE,135,5.8,5.8,76,0.00,CLR,,0.00,WeatherDisplay:10.37,2013-03-10 17:26:00,
2013-03-10 12:31:00,69.8,58.8,29.76,South,180,11.5,11.5,68,0.00,CLR,,0.00,WeatherDisplay:10.37,2013-03-10 17:31:00,
2013-03-10 12:36:00,65.8,57.3,29.75,West,270,9.2,9.2,74,0.00,CLR,,0.00,WeatherDisplay:10.37,2013-03-10 17:36:00,
2013-03-10 12:41:00,64.0,57.0,29.77,NW,315,17.3,17.3,78,0.00,CLR,,0.00,WeatherDisplay:10.37,2013-03-10 17:41:00,
2013-03-10 12:47:00,62.8,56.9,29.77,South,180,4.6,4.6,81,0.01,RA,,0.01,WeatherDisplay:10.37,2013-03-10 17:47:00,
2013-03-10 12:52:00,59.9,56.0,29.76,NE,45,4.6,4.6,87,0.02,RA,,0.02,WeatherDisplay:10.37,2013-03-10 17:52:00,
2013-03-10 12:57:00,59.5,56.0,29.79,North,0,4.6,4.6,88,0.04,RA,,0.04,WeatherDisplay:10.37,2013-03-10 17:57:00,
2013-03-10 13:02:00,59.5,56.0,29.77,North,0,4.6,4.6,88,0.04,RA,,0.04,WeatherDisplay:10.37,2013-03-10 18:02:00,
2013-03-10 13:07:00,59.5,56.0,29.77,North,0,4.6,4.6,88,0.04,CLR,,0.04,WeatherDisplay:10.37,2013-03-10 18:07:00,
2013-03-10 13:12:00,59.5,56.0,29.78,North,0,4.6,4.6,88,0.04,CLR,,0.04,WeatherDisplay:10.37,2013-03-10 18:12:00,
2013-03-10 13:17:00,59.5,56.0,29.79,North,0,4.6,4.6,88,0.04,CLR,,0.04,WeatherDisplay:10.37,2013-03-10 18:17:00,
2013-03-10 13:22:00,59.5,56.0,29.77,North,0,4.6,4.6,88,0.04,CLR,,0.04,WeatherDisplay:10.37,2013-03-10 18:22:00,
2013-03-10 13:27:00,59.5,56.0,29.78,North,0,4.6,4.6,88,0.04,CLR,,0.04,WeatherDisplay:10.37,2013-03-10 18:27:00,
2013-03-10 13:32:00,55.6,54.7,29.78,NE,45,8.1,8.1,97,0.13,RA,,0.13,WeatherDisplay:10.37,2013-03-10 18:32:00,
2013-03-10 13:37:00,55.6,54.7,29.79,North,2,8.1,8.1,97,0.13,RA,,0.13,WeatherDisplay:10.37,2013-03-10 18:37:00,
2013-03-10 13:42:00,55.6,54.7,29.79,North,0,8.1,8.1,97,0.13,CLR,,0.13,WeatherDisplay:10.37,2013-03-10 18:42:00,
2013-03-10 13:47:00,55.6,54.7,29.79,North,0,8.1,8.1,97,0.12,CLR,,0.13,WeatherDisplay:10.37,2013-03-10 18:47:00,
2013-03-10 13:53:00,55.9,55.4,29.78,SE,135,3.5,3.5,98,0.09,CLR,,0.13,WeatherDisplay:10.37,2013-03-10 18:53:00,
2013-03-10 13:58:00,55.8,55.2,29.78,SW,225,5.8,5.8,98,0.09,CLR,,0.13,WeatherDisplay:10.37,2013-03-10 18:58:00,
2013-03-10 14:03:00,55.8,55.2,29.78,SW,225,5.8,5.8,98,0.09,CLR,,0.13,WeatherDisplay:10.37,2013-03-10 19:03:00,
2013-03-10 14:08:00,55.8,55.2,29.77,North,10,5.8,5.8,98,0.09,CLR,,0.13,WeatherDisplay:10.37,2013-03-10 19:08:00,
2013-03-10 14:13:00,55.8,55.2,29.77,North,0,5.8,5.8,98,0.09,CLR,,0.13,WeatherDisplay:10.37,2013-03-10 19:13:00,
2013-03-10 14:19:00,55.8,55.2,29.78,North,0,5.8,5.8,98,0.09,CLR,,0.13,WeatherDisplay:10.37,2013-03-10 19:19:00,
2013-03-10 14:24:00,55.9,55.4,29.77,West,270,5.8,5.8,98,0.11,RA,,0.14,WeatherDisplay:10.37,2013-03-10 19:24:00,
2013-03-10 14:29:00,55.9,55.4,29.78,West,270,3.5,3.5,98,0.01,RA,,0.14,WeatherDisplay:10.37,2013-03-10 19:29:00,
2013-03-10 14:34:00,55.9,55.4,29.77,North,0,3.5,3.5,98,0.01,,,0.14,WeatherDisplay:10.37,2013-03-10 19:34:00,
2013-03-10 14:39:00,55.9,55.4,29.77,North,0,3.5,3.5,98,0.01,CLR,,0.14,WeatherDisplay:10.37,2013-03-10 19:39:00,
2013-03-10 14:44:00,55.9,55.4,29.77,North,0,3.5,3.5,98,0.01,CLR,,0.14,WeatherDisplay:10.37,2013-03-10 19:44:00,
2013-03-10 14:49:00,55.9,55.4,29.76,North,0,3.5,3.5,98,0.01,CLR,,0.14,WeatherDisplay:10.37,2013-03-10 19:49:00,
2013-03-10 14:54:00,55.9,55.4,29.77,North,0,3.5,3.5,98,0.01,CLR,,0.14,WeatherDisplay:10.37,2013-03-10 19:54:00,
2013-03-10 14:59:00,55.9,55.4,29.77,North,0,3.5,3.5,98,0.01,CLR,,0.14,WeatherDisplay:10.37,2013-03-10 19:59:00,
2013-03-10 15:04:00,55.9,55.4,29.77,North,0,3.5,3.5,98,0.01,CLR,,0.14,WeatherDisplay:10.37,2013-03-10 20:04:00,
2013-03-10 15:12:00,55.9,55.4,29.77,North,0,3.5,3.5,98,0.01,CLR,,0.14,WeatherDisplay:10.37,2013-03-10 20:12:00,
2013-03-10 15:18:00,55.9,55.4,29.77,North,0,3.5,3.5,98,0.01,CLR,,0.14,WeatherDisplay:10.37,2013-03-10 20:18:00,
2013-03-10 15:23:00,55.9,55.4,29.77,North,0,3.5,3.5,98,0.00,CLR,,0.14,WeatherDisplay:10.37,2013-03-10 20:23:00,
2013-03-10 15:28:00,55.9,55.4,29.76,North,0,3.5,3.5,98,0.00,CLR,,0.14,WeatherDisplay:10.37,2013-03-10 20:28:00,
2013-03-10 15:33:00,55.9,55.4,29.76,North,0,3.5,3.5,98,0.00,CLR,,0.14,WeatherDisplay:10.37,2013-03-10 20:33:00,
2013-03-10 15:38:00,55.9,55.4,29.76,North,0,3.5,3.5,98,0.00,CLR,,0.14,WeatherDisplay:10.37,2013-03-10 20:38:00,
2013-03-10 15:44:00,55.9,55.4,29.76,North,0,3.5,3.5,98,0.00,CLR,,0.14,WeatherDisplay:10.37,2013-03-10 20:44:00,
2013-03-10 15:49:00,55.9,55.4,29.76,North,0,3.5,3.5,98,0.00,CLR,,0.14,WeatherDisplay:10.37,2013-03-10 20:49:00,
2013-03-10 15:54:00,55.9,55.4,29.76,North,0,3.5,3.5,98,0.00,CLR,,0.14,WeatherDisplay:10.37,2013-03-10 20:54:00,
2013-03-10 15:59:00,55.9,55.4,29.76,North,0,3.5,3.5,98,0.00,CLR,,0.14,WeatherDisplay:10.37,2013-03-10 20:59:00,
2013-03-10 16:04:00,55.9,55.4,29.76,North,0,3.5,3.5,98,0.00,CLR,,0.14,WeatherDisplay:10.37,2013-03-10 21:04:00,
2013-03-10 16:09:00,55.9,55.4,29.76,North,0,3.5,3.5,98,0.00,CLR,,0.14,WeatherDisplay:10.37,2013-03-10 21:09:00,
2013-03-10 16:14:00,55.9,55.4,29.75,North,0,3.5,3.5,98,0.00,CLR,,0.14,WeatherDisplay:10.37,2013-03-10 21:14:00,
2013-03-10 16:19:00,55.9,55.4,29.75,North,0,3.5,3.5,98,0.00,CLR,,0.14,WeatherDisplay:10.37,2013-03-10 21:19:00,
2013-03-10 16:24:00,55.9,55.4,29.76,North,0,3.5,3.5,98,0.00,CLR,,0.14,WeatherDisplay:10.37,2013-03-10 21:24:00,
2013-03-10 16:29:00,55.9,55.4,29.76,North,0,3.5,3.5,98,0.00,CLR,,0.14,WeatherDisplay:10.37,2013-03-10 21:29:00,
2013-03-10 16:34:00,55.9,55.4,29.77,North,0,3.5,3.5,98,0.00,CLR,,0.14,WeatherDisplay:10.37,2013-03-10 21:34:00,
2013-03-10 16:39:00,55.9,55.4,29.76,North,0,3.5,3.5,98,0.00,CLR,,0.14,WeatherDisplay:10.37,2013-03-10 21:39:00,
2013-03-10 16:44:00,55.9,55.4,29.76,North,0,3.5,3.5,98,0.00,CLR,,0.14,WeatherDisplay:10.37,2013-03-10 21:44:00,
2013-03-10 16:49:00,55.9,55.4,29.76,North,0,3.5,3.5,98,0.00,CLR,,0.14,WeatherDisplay:10.37,2013-03-10 21:49:00,
2013-03-10 16:55:00,55.9,55.4,29.76,North,0,3.5,3.5,98,0.00,CLR,,0.14,WeatherDisplay:10.37,2013-03-10 21:55:00,
2013-03-10 17:00:00,55.9,55.4,29.76,North,0,3.5,3.5,98,0.00,CLR,,0.14,WeatherDisplay:10.37,2013-03-10 22:00:00,
2013-03-10 17:05:00,55.9,55.4,29.76,North,0,3.5,3.5,98,0.00,CLR,,0.14,WeatherDisplay:10.37,2013-03-10 22:05:00,
2013-03-10 17:10:00,55.9,55.4,29.76,North,0,1.0,3.0,98,0.00,CLR,,0.14,WeatherDisplay:10.37,2013-03-10 22:10:00,
2013-03-10 17:15:00,55.9,55.4,29.75,North,0,3.5,3.5,98,0.00,CLR,,0.14,WeatherDisplay:10.37,2013-03-10 22:15:00,
2013-03-10 17:20:00,55.9,55.4,29.76,North,0,1.0,3.0,98,0.00,CLR,,0.14,WeatherDisplay:10.37,2013-03-10 22:20:00,
2013-03-10 17:25:00,55.9,55.4,29.76,North,0,3.5,3.5,98,0.00,CLR,,0.14,WeatherDisplay:10.37,2013-03-10 22:25:00,
2013-03-10 17:30:00,55.9,55.4,29.75,North,0,3.5,3.5,98,0.00,CLR,,0.14,WeatherDisplay:10.37,2013-03-10 22:30:00,
2013-03-10 17:35:00,55.9,55.4,29.75,North,0,3.5,3.5,98,0.00,CLR,,0.14,WeatherDisplay:10.37,2013-03-10 22:35:00,
2013-03-10 17:40:00,55.9,55.4,29.76,North,0,3.5,3.5,98,0.00,CLR,,0.14,WeatherDisplay:10.37,2013-03-10 22:40:00,
2013-03-10 17:45:00,55.9,55.4,29.76,North,0,3.5,3.5,98,0.00,CLR,,0.14,WeatherDisplay:10.37,2013-03-10 22:45:00,
2013-03-10 17:50:00,55.9,55.4,29.75,North,0,3.5,3.5,98,0.00,CLR,,0.14,WeatherDisplay:10.37,2013-03-10 22:50:00,
2013-03-10 17:55:00,56.7,56.4,29.75,NE,45,3.5,0.0,99,0.04,RA,,0.18,WeatherDisplay:10.37,2013-03-10 22:55:00,
2013-03-10 18:00:00,56.7,56.4,29.75,NE,45,0.0,0.0,99,0.04,RA,,0.18,WeatherDisplay:10.37,2013-03-10 23:00:00,
2013-03-10 18:05:00,56.7,56.4,29.75,NE,45,0.0,0.0,99,0.04,,,0.18,WeatherDisplay:10.37,2013-03-10 23:05:00,
2013-03-10 18:10:00,56.7,56.4,29.77,South,180,0.0,0.0,99,0.04,CLR,,0.18,WeatherDisplay:10.37,2013-03-10 23:10:00,
2013-03-10 18:15:00,56.7,56.4,29.77,South,180,0.0,0.0,99,0.04,CLR,,0.18,WeatherDisplay:10.37,2013-03-10 23:15:00,
2013-03-10 18:20:00,56.7,56.4,29.76,NW,315,0.0,0.0,99,0.05,RA,,0.19,WeatherDisplay:10.37,2013-03-10 23:20:00,
2013-03-10 18:25:00,56.7,56.4,29.76,NW,315,0.0,0.0,99,0.05,RA,,0.19,WeatherDisplay:10.37,2013-03-10 23:25:00,
2013-03-10 18:30:00,56.7,56.4,29.76,North,0,1.1,0.0,99,0.06,RA,,0.20,WeatherDisplay:10.37,2013-03-10 23:30:00,
2013-03-10 18:35:00,56.5,56.2,29.76,North,0,1.1,0.0,99,0.06,RA,,0.20,WeatherDisplay:10.37,2013-03-10 23:35:00,
2013-03-10 18:40:00,56.5,56.2,29.76,North,0,0.0,0.0,99,0.06,,,0.20,WeatherDisplay:10.37,2013-03-10 23:40:00,
2013-03-10 18:45:00,56.5,56.2,29.76,North,0,0.0,0.0,99,0.06,CLR,,0.20,WeatherDisplay:10.37,2013-03-10 23:45:00,
2013-03-10 18:50:00,56.5,56.2,29.76,South,180,1.1,0.0,99,0.06,CLR,,0.20,WeatherDisplay:10.37,2013-03-10 23:50:00,
2013-03-10 18:55:00,56.5,56.2,29.77,South,180,0.0,0.0,99,0.02,CLR,,0.20,WeatherDisplay:10.37,2013-03-10 23:55:00,
2013-03-10 19:00:00,56.5,56.2,29.77,South,180,0.0,0.0,99,0.04,RA,,0.21,WeatherDisplay:10.37,2013-03-11 00:00:00,
2013-03-10 19:05:00,56.5,56.2,29.77,South,180,0.0,0.0,99,0.04,RA,,0.21,WeatherDisplay:10.37,2013-03-11 00:05:00,
2013-03-10 19:10:00,56.3,56.0,29.77,SE,135,0.0,0.0,99,0.04,,,0.21,WeatherDisplay:10.37,2013-03-11 00:10:00,
2013-03-10 19:15:00,56.3,56.0,29.77,West,270,0.0,0.0,99,0.04,CLR,,0.21,WeatherDisplay:10.37,2013-03-11 00:15:00,
2013-03-10 19:20:00,56.3,56.0,29.77,West,270,0.0,0.0,99,0.02,CLR,,0.21,WeatherDisplay:10.37,2013-03-11 00:20:00,
2013-03-10 19:25:00,56.3,56.0,29.78,SE,135,1.1,0.0,99,0.02,CLR,,0.21,WeatherDisplay:10.37,2013-03-11 00:25:00,
2013-03-10 19:30:00,56.1,55.8,29.78,SE,135,0.0,0.0,99,0.01,CLR,,0.21,WeatherDisplay:10.37,2013-03-11 00:30:00,
2013-03-10 19:35:00,56.1,55.8,29.78,SE,135,0.0,0.0,99,0.01,CLR,,0.21,WeatherDisplay:10.37,2013-03-11 00:35:00,
2013-03-10 19:40:00,56.1,55.8,29.78,North,0,0.0,0.0,99,0.01,CLR,,0.21,WeatherDisplay:10.37,2013-03-11 00:40:00,
2013-03-10 19:45:00,56.1,55.8,29.77,North,0,0.0,0.0,99,0.01,CLR,,0.21,WeatherDisplay:10.37,2013-03-11 00:45:00,
2013-03-10 19:50:00,55.9,55.7,29.78,North,0,0.0,0.0,99,0.01,CLR,,0.21,WeatherDisplay:10.37,2013-03-11 00:50:00,
2013-03-10 19:55:00,55.9,55.7,29.78,North,0,0.0,0.0,99,0.01,CLR,,0.21,WeatherDisplay:10.37,2013-03-11 00:55:00,
2013-03-10 20:00:00,55.8,55.5,29.78,North,0,0.0,0.0,99,0.00,CLR,,0.21,WeatherDisplay:10.37,2013-03-11 01:00:00,
2013-03-10 20:06:00,55.8,55.5,29.79,North,0,0.0,0.0,99,0.00,CLR,,0.21,WeatherDisplay:10.37,2013-03-11 01:06:00,
2013-03-10 20:11:00,55.8,55.5,29.79,North,0,0.0,0.0,99,0.00,CLR,,0.21,WeatherDisplay:10.37,2013-03-11 01:11:00,
2013-03-10 20:16:00,55.8,55.5,29.78,North,0,0.0,0.0,99,0.00,CLR,,0.21,WeatherDisplay:10.37,2013-03-11 01:16:00,
2013-03-10 20:21:00,55.8,55.5,29.79,North,0,0.0,0.0,99,0.00,CLR,,0.21,WeatherDisplay:10.37,2013-03-11 01:21:00,
2013-03-10 20:26:00,55.8,55.5,29.79,North,0,0.0,0.0,99,0.00,CLR,,0.21,WeatherDisplay:10.37,2013-03-11 01:26:00,
2013-03-10 20:31:00,55.8,55.5,29.79,North,0,0.0,0.0,99,0.00,CLR,,0.21,WeatherDisplay:10.37,2013-03-11 01:31:00,
2013-03-10 20:36:00,55.8,55.5,29.79,West,270,0.0,0.0,99,0.00,CLR,,0.21,WeatherDisplay:10.37,2013-03-11 01:36:00,
2013-03-10 20:42:00,55.8,55.5,29.80,West,270,0.0,0.0,99,0.00,CLR,,0.21,WeatherDisplay:10.37,2013-03-11 01:42:00,
2013-03-10 20:47:00,55.8,55.5,29.80,East,90,0.0,0.0,99,0.00,CLR,,0.21,WeatherDisplay:10.37,2013-03-11 01:47:00,
2013-03-10 20:52:00,55.8,55.5,29.80,East,90,0.0,0.0,99,0.00,CLR,,0.21,WeatherDisplay:10.37,2013-03-11 01:52:00,
2013-03-10 20:57:00,55.8,55.5,29.81,North,4,0.0,0.0,99,0.00,CLR,,0.21,WeatherDisplay:10.37,2013-03-11 01:57:00,
2013-03-10 21:02:00,55.6,55.3,29.80,North,0,0.0,0.0,99,0.00,CLR,,0.21,WeatherDisplay:10.37,2013-03-11 02:02:00,
2013-03-10 21:07:00,55.6,55.3,29.81,North,0,0.0,0.0,99,0.00,CLR,,0.21,WeatherDisplay:10.37,2013-03-11 02:07:00,
2013-03-10 21:12:00,55.6,55.3,29.81,North,0,0.0,0.0,99,0.00,CLR,,0.21,WeatherDisplay:10.37,2013-03-11 02:12:00,
2013-03-10 21:17:00,55.6,55.3,29.81,North,0,0.0,0.0,99,0.00,CLR,,0.21,WeatherDisplay:10.37,2013-03-11 02:17:00,
2013-03-10 21:23:00,55.4,55.1,29.81,SE,135,0.0,0.0,99,0.00,CLR,,0.21,WeatherDisplay:10.37,2013-03-11 02:23:00,
2013-03-10 21:28:00,55.4,55.1,29.82,North,6,0.0,0.0,99,0.00,CLR,,0.21,WeatherDisplay:10.37,2013-03-11 02:28:00,
2013-03-10 21:33:00,55.4,55.1,29.82,North,0,0.0,0.0,99,0.00,CLR,,0.21,WeatherDisplay:10.37,2013-03-11 02:33:00,
2013-03-10 21:38:00,55.4,55.1,29.81,North,0,0.0,0.0,99,0.00,CLR,,0.21,WeatherDisplay:10.37,2013-03-11 02:38:00,
2013-03-10 21:43:00,55.0,54.8,29.81,NW,315,0.0,0.0,99,0.00,CLR,,0.21,WeatherDisplay:10.37,2013-03-11 02:43:00,
2013-03-10 21:48:00,55.0,54.8,29.81,SW,225,0.0,0.0,99,0.00,CLR,,0.21,WeatherDisplay:10.37,2013-03-11 02:48:00,
2013-03-10 21:53:00,55.0,54.8,29.82,SW,225,0.0,0.0,99,0.00,CLR,,0.21,WeatherDisplay:10.37,2013-03-11 02:53:00,
2013-03-10 21:58:00,55.0,54.8,29.82,West,270,1.1,0.0,99,0.00,CLR,,0.21,WeatherDisplay:10.37,2013-03-11 02:58:00,
2013-03-10 22:03:00,55.0,54.8,29.82,West,270,1.1,0.0,99,0.00,CLR,,0.21,WeatherDisplay:10.37,2013-03-11 03:03:00,
2013-03-10 22:08:00,54.9,54.6,29.83,West,270,1.1,0.0,99,0.00,CLR,,0.21,WeatherDisplay:10.37,2013-03-11 03:08:00,
2013-03-10 22:13:00,54.9,54.6,29.83,West,270,0.0,0.0,99,0.00,CLR,,0.21,WeatherDisplay:10.37,2013-03-11 03:13:00,
2013-03-10 22:18:00,54.9,54.6,29.84,SE,135,0.0,0.0,99,0.00,CLR,,0.21,WeatherDisplay:10.37,2013-03-11 03:18:00,
2013-03-10 22:23:00,54.9,54.6,29.83,SE,135,1.1,0.0,99,0.00,CLR,,0.21,WeatherDisplay:10.37,2013-03-11 03:23:00,
2013-03-10 22:28:00,54.9,54.6,29.83,SE,135,0.0,0.0,99,0.00,CLR,,0.21,WeatherDisplay:10.37,2013-03-11 03:28:00,
2013-03-10 22:33:00,54.9,54.6,29.84,SE,135,0.0,0.0,99,0.00,CLR,,0.21,WeatherDisplay:10.37,2013-03-11 03:33:00,
2013-03-10 22:38:00,55.0,54.8,29.84,West,270,1.1,1.1,99,0.00,CLR,,0.21,WeatherDisplay:10.37,2013-03-11 03:38:00,
2013-03-10 22:43:00,54.9,54.6,29.84,SW,225,0.0,0.0,99,0.00,CLR,,0.21,WeatherDisplay:10.37,2013-03-11 03:43:00,
2013-03-10 22:48:00,54.9,54.6,29.84,SW,225,0.0,0.0,99,0.00,CLR,,0.21,WeatherDisplay:10.37,2013-03-11 03:48:00,
2013-03-10 22:53:00,54.9,54.6,29.85,SW,225,1.1,0.0,99,0.00,CLR,,0.21,WeatherDisplay:10.37,2013-03-11 03:53:00,
2013-03-10 22:58:00,54.7,54.4,29.85,SW,225,0.0,0.0,99,0.00,CLR,,0.21,WeatherDisplay:10.37,2013-03-11 03:58:00,
2013-03-10 23:00:00,54.7,54.4,29.85,SW,225,0.0,0.0,99,0.00,CLR,,0.21,WeatherDisplay:10.37,2013-03-11 04:00:00,
2013-03-10 23:02:00,54.7,54.4,29.85,SW,225,0.0,0.0,99,0.00,CLR,,0.21,WeatherDisplay:10.37,2013-03-11 04:02:00,
2013-03-10 23:07:00,54.7,54.4,29.86,SW,225,0.0,0.0,99,0.00,CLR,,0.21,WeatherDisplay:10.37,2013-03-11 04:07:00,
2013-03-10 23:12:00,54.7,54.4,29.87,SW,225,0.0,0.0,99,0.00,CLR,,0.21,WeatherDisplay:10.37,2013-03-11 04:12:00,
2013-03-10 23:17:00,53.4,52.3,29.87,NE,45,8.1,8.1,96,0.00,CLR,,0.21,WeatherDisplay:10.37,2013-03-11 04:17:00,
2013-03-10 23:22:00,52.7,51.0,29.87,South,180,3.5,3.5,94,0.00,CLR,,0.21,WeatherDisplay:10.37,2013-03-11 04:22:00,
2013-03-10 23:27:00,52.0,50.3,29.87,South,180,4.6,4.6,94,0.00,CLR,,0.21,WeatherDisplay:10.37,2013-03-11 04:27:00,
2013-03-10 23:32:00,51.4,49.2,29.87,North,0,4.6,4.6,92,0.00,CLR,,0.21,WeatherDisplay:10.37,2013-03-11 04:32:00,
2013-03-10 23:37:00,51.3,49.0,29.86,SW,225,6.9,6.9,92,0.00,CLR,,0.21,WeatherDisplay:10.37,2013-03-11 04:37:00,
2013-03-10 23:42:00,50.9,48.1,29.87,SE,135,5.8,5.8,90,0.00,CLR,,0.21,WeatherDisplay:10.37,2013-03-11 04:42:00,
2013-03-10 23:47:00,50.7,47.6,29.87,South,180,8.1,8.1,89,0.00,CLR,,0.21,WeatherDisplay:10.37,2013-03-11 04:47:00,
2013-03-10 23:52:00,50.4,47.2,29.87,SE,135,5.8,5.8,89,0.00,CLR,,0.21,WeatherDisplay:10.37,2013-03-11 04:52:00,
2013-03-10 23:58:00,50.4,46.9,29.87,South,180,6.9,6.9,88,0.00,CLR,,0.21,WeatherDisplay:10.37,2013-03-11 04:58:00,